createdAt,value
2023-03-27T00:02:24.760Z,97789.88
2023-03-27T00:04:54.825Z,97787.02
2023-03-27T00:07:22.916Z,97784.88
2023-03-27T00:09:51.346Z,97780.74
2023-03-27T00:12:19.004Z,97774.48
2023-03-27T00:14:46.768Z,97768.86
2023-03-27T00:17:14.434Z,97759.92
2023-03-27T00:19:42.513Z,97759.23
2023-03-27T00:22:10.980Z,97754.63
2023-03-27T00:24:38.644Z,97752.00
2023-03-27T00:27:06.815Z,97753.89
2023-03-27T00:29:34.789Z,97750.03
2023-03-27T00:32:02.554Z,97750.79
2023-03-27T00:34:31.550Z,97752.55
2023-03-27T00:36:59.306Z,97745.30
2023-03-27T00:39:28.095Z,97742.99
2023-03-27T00:41:56.381Z,97745.08
2023-03-27T00:44:24.139Z,97747.02
2023-03-27T00:46:52.001Z,97743.96
2023-03-27T00:49:20.073Z,97743.48
2023-03-27T00:51:48.348Z,97740.46
2023-03-27T00:54:16.429Z,97739.70
2023-03-27T00:56:44.134Z,97739.32
2023-03-27T00:59:12.255Z,97737.84
2023-03-27T01:01:40.276Z,97741.92
2023-03-27T01:04:08.821Z,97743.98
2023-03-27T01:06:36.571Z,97743.25
2023-03-27T01:09:04.840Z,97738.66
2023-03-27T01:11:32.611Z,97741.02
2023-03-27T01:14:00.476Z,97737.73
2023-03-27T01:16:28.140Z,97734.01
2023-03-27T01:18:56.006Z,97730.70
2023-03-27T01:21:23.766Z,97727.11
2023-03-27T01:24:00.444Z,97723.55
2023-03-27T01:26:36.204Z,97719.98
2023-03-27T01:29:05.079Z,97716.95
2023-03-27T01:31:32.961Z,97714.51
2023-03-27T01:34:01.019Z,97712.57
2023-03-27T01:36:28.681Z,97712.27
2023-03-27T01:38:56.341Z,97712.48
2023-03-27T01:41:24.005Z,97705.75
2023-03-27T01:43:51.768Z,97700.79
2023-03-27T01:46:19.492Z,97695.67
2023-03-27T01:48:47.296Z,97698.16
2023-03-27T01:51:14.959Z,97697.42
2023-03-27T01:53:42.620Z,97693.20
2023-03-27T01:56:10.389Z,97688.35
2023-03-27T01:58:38.153Z,97687.64
2023-03-27T02:01:06.504Z,97685.42
2023-03-27T02:03:35.004Z,97678.20
2023-03-27T02:06:02.772Z,97673.08
2023-03-27T02:08:30.541Z,97673.36
2023-03-27T02:10:58.484Z,97669.80
2023-03-27T02:13:26.375Z,97669.73
2023-03-27T02:15:54.172Z,97666.85
2023-03-27T02:18:21.899Z,97663.56
2023-03-27T02:20:49.663Z,97661.64
2023-03-27T02:23:17.326Z,97662.00
2023-03-27T02:25:45.194Z,97664.29
2023-03-27T02:28:13.067Z,97656.30
2023-03-27T02:30:40.823Z,97659.25
2023-03-27T02:33:09.261Z,97657.67
2023-03-27T02:35:37.097Z,97661.08
2023-03-27T02:38:04.857Z,97660.21
2023-03-27T02:40:32.714Z,97652.41
2023-03-27T02:43:08.242Z,97653.44
2023-03-27T02:45:35.943Z,97654.29
2023-03-27T02:48:03.735Z,97653.42
2023-03-27T02:50:31.647Z,97650.28
2023-03-27T02:52:59.306Z,97643.25
2023-03-27T02:55:26.968Z,97640.22
2023-03-27T02:57:54.731Z,97641.82
2023-03-27T03:00:25.718Z,97641.42
2023-03-27T03:02:53.701Z,97637.85
2023-03-27T03:05:22.333Z,97640.88
2023-03-27T03:07:49.960Z,97642.24
2023-03-27T03:10:17.664Z,97642.98
2023-03-27T03:12:45.313Z,97642.87
2023-03-27T03:15:12.969Z,97646.53
2023-03-27T03:17:40.691Z,97642.73
2023-03-27T03:20:09.942Z,97648.39
2023-03-27T03:22:40.169Z,97652.22
2023-03-27T03:25:07.920Z,97647.23
2023-03-27T03:27:35.580Z,97647.94
2023-03-27T03:30:04.680Z,97646.85
2023-03-27T03:32:34.306Z,97651.91
2023-03-27T03:35:02.252Z,97652.46
2023-03-27T03:37:30.222Z,97656.83
2023-03-27T03:39:58.297Z,97658.04
2023-03-27T03:42:25.962Z,97657.56
2023-03-27T03:44:53.719Z,97659.84
2023-03-27T03:47:21.520Z,97661.45
2023-03-27T03:49:49.246Z,97660.98
2023-03-27T03:52:16.907Z,97663.09
2023-03-27T03:54:46.680Z,97658.79
2023-03-27T03:57:14.817Z,97659.29
2023-03-27T03:59:42.961Z,97659.47
2023-03-27T04:02:12.480Z,97658.30
2023-03-27T04:04:40.434Z,97656.28
2023-03-27T04:07:09.838Z,97659.37
2023-03-27T04:09:37.813Z,97655.09
2023-03-27T04:12:05.673Z,97656.54
2023-03-27T04:14:33.332Z,97655.72
2023-03-27T04:17:01.413Z,97654.83
2023-03-27T04:19:29.105Z,97655.76
2023-03-27T04:21:58.368Z,97655.27
2023-03-27T04:24:26.005Z,97657.63
2023-03-27T04:26:53.689Z,97654.70
2023-03-27T04:29:22.520Z,97652.05
2023-03-27T04:31:50.780Z,97650.33
2023-03-27T04:34:20.670Z,97648.15
2023-03-27T04:36:48.442Z,97654.92
2023-03-27T04:39:17.534Z,97652.27
2023-03-27T04:41:51.753Z,97653.47
2023-03-27T04:44:19.514Z,97651.55
2023-03-27T04:46:50.400Z,97648.85
2023-03-27T04:49:19.345Z,97648.48
2023-03-27T04:51:47.013Z,97648.41
2023-03-27T04:54:14.670Z,97653.85
2023-03-27T04:56:42.360Z,97650.92
2023-03-27T04:59:09.996Z,97646.45
2023-03-27T05:01:37.812Z,97648.75
2023-03-27T05:04:05.822Z,97645.73
2023-03-27T05:06:33.588Z,97648.84
2023-03-27T05:09:01.668Z,97649.45
2023-03-27T05:11:29.423Z,97652.62
2023-03-27T05:13:57.096Z,97648.45
2023-03-27T05:16:26.797Z,97646.90
2023-03-27T05:18:54.866Z,97651.76
2023-03-27T05:21:22.636Z,97651.59
2023-03-27T05:23:50.410Z,97647.41
2023-03-27T05:26:19.383Z,97643.77
2023-03-27T05:28:47.045Z,97653.89
2023-03-27T05:31:14.733Z,97653.02
2023-03-27T05:33:42.470Z,97654.06
2023-03-27T05:36:10.145Z,97651.84
2023-03-27T05:38:38.202Z,97653.47
2023-03-27T05:41:06.377Z,97650.73
2023-03-27T05:43:34.047Z,97647.06
2023-03-27T05:46:01.878Z,97648.68
2023-03-27T05:48:29.669Z,97646.77
2023-03-27T05:50:57.602Z,97644.59
2023-03-27T05:53:28.359Z,97646.35
2023-03-27T05:56:02.325Z,97644.08
2023-03-27T05:58:31.783Z,97641.57
2023-03-27T06:00:59.754Z,97639.36
2023-03-27T06:03:30.592Z,97641.23
2023-03-27T06:06:01.308Z,97638.19
2023-03-27T06:08:29.914Z,97641.48
2023-03-27T06:10:57.879Z,97641.84
2023-03-27T06:13:25.948Z,97643.91
2023-03-27T06:15:53.733Z,97645.48
2023-03-27T06:18:21.785Z,97647.73
2023-03-27T06:20:49.551Z,97651.10
2023-03-27T06:23:17.527Z,97655.42
2023-03-27T06:25:47.514Z,97662.17
2023-03-27T06:28:15.429Z,97661.30
2023-03-27T06:30:43.166Z,97666.48
2023-03-27T06:33:12.372Z,97670.56
2023-03-27T06:35:40.239Z,97672.84
2023-03-27T06:38:07.997Z,97679.71
2023-03-27T06:40:36.783Z,97682.39
2023-03-27T06:43:04.442Z,97682.70
2023-03-27T06:45:32.627Z,97689.53
2023-03-27T06:48:18.831Z,97687.46
2023-03-27T06:50:48.115Z,97686.89
2023-03-27T06:55:48.248Z,97691.15
2023-03-27T06:58:19.138Z,97698.36
2023-03-27T07:00:47.273Z,97697.35
2023-03-27T07:03:15.441Z,97696.30
2023-03-27T07:05:43.312Z,97693.14
2023-03-27T07:08:22.585Z,97687.23
2023-03-27T07:11:03.724Z,97687.57
2023-03-27T07:13:38.350Z,97684.07
2023-03-27T07:16:06.399Z,97684.61
2023-03-27T07:18:34.267Z,97686.80
2023-03-27T07:21:01.882Z,97685.80
2023-03-27T07:23:30.304Z,97687.33
2023-03-27T07:25:58.298Z,97687.84
2023-03-27T07:28:26.459Z,97687.14
2023-03-27T07:30:54.241Z,97691.28
2023-03-27T07:33:22.419Z,97690.61
2023-03-27T07:35:50.268Z,97693.02
2023-03-27T07:38:18.641Z,97694.02
2023-03-27T07:40:46.692Z,97695.24
2023-03-27T07:43:14.575Z,97698.31
2023-03-27T07:45:42.399Z,97700.39
2023-03-27T07:48:10.620Z,97704.20
2023-03-27T07:50:38.384Z,97703.14
2023-03-27T07:53:08.803Z,97703.14
2023-03-27T07:55:41.887Z,97707.66
2023-03-27T07:58:09.607Z,97708.71
2023-03-27T08:00:38.956Z,97709.92
2023-03-27T08:03:07.296Z,97709.81
2023-03-27T08:05:35.311Z,97707.52
2023-03-27T08:08:03.079Z,97708.71
2023-03-27T08:10:30.754Z,97712.54
2023-03-27T08:12:58.393Z,97711.17
2023-03-27T08:15:26.469Z,97714.14
2023-03-27T08:17:55.402Z,97712.07
2023-03-27T08:20:24.101Z,97713.45
2023-03-27T08:22:52.934Z,97715.27
2023-03-27T08:25:22.888Z,97716.66
2023-03-27T08:27:50.927Z,97717.89
2023-03-27T08:30:19.397Z,97713.38
2023-03-27T08:32:47.200Z,97711.48
2023-03-27T08:35:14.933Z,97712.03
2023-03-27T08:37:44.129Z,97713.78
2023-03-27T08:40:14.451Z,97714.59
2023-03-27T08:42:42.415Z,97714.77
2023-03-27T08:45:10.183Z,97715.84
2023-03-27T08:47:37.866Z,97716.35
2023-03-27T08:50:05.919Z,97715.77
2023-03-27T08:52:33.577Z,97713.64
2023-03-27T08:55:01.544Z,97713.39
2023-03-27T08:57:31.767Z,97714.82
2023-03-27T08:59:59.747Z,97713.48
2023-03-27T09:02:27.607Z,97715.46
2023-03-27T09:04:55.469Z,97716.80
2023-03-27T09:07:23.132Z,97716.35
2023-03-27T09:09:52.945Z,97715.23
2023-03-27T09:12:20.916Z,97716.98
2023-03-27T09:14:48.880Z,97718.08
2023-03-27T09:17:16.544Z,97717.19
2023-03-27T09:19:44.307Z,97716.77
2023-03-27T09:22:11.981Z,97720.06
2023-03-27T09:24:39.961Z,97716.65
2023-03-27T09:27:08.421Z,97718.13
2023-03-27T09:29:36.085Z,97717.31
2023-03-27T09:32:04.265Z,97718.94
2023-03-27T09:34:34.795Z,97718.60
2023-03-27T09:37:02.849Z,97722.70
2023-03-27T09:39:32.726Z,97727.33
2023-03-27T09:42:00.746Z,97729.30
2023-03-27T09:44:34.575Z,97731.96
2023-03-27T09:47:02.740Z,97732.35
2023-03-27T09:49:30.888Z,97733.71
2023-03-27T09:52:00.322Z,97730.56
2023-03-27T09:54:32.267Z,97732.29
2023-03-27T09:56:59.959Z,97730.75
2023-03-27T09:59:27.886Z,97728.65
2023-03-27T10:01:55.552Z,97725.70
2023-03-27T10:04:23.631Z,97722.79
2023-03-27T10:06:52.416Z,97724.71
2023-03-27T10:09:20.601Z,97726.83
2023-03-27T10:11:48.347Z,97729.64
2023-03-27T10:14:16.426Z,97732.52
2023-03-27T10:16:46.296Z,97732.38
2023-03-27T10:19:14.101Z,97737.92
2023-03-27T10:21:44.830Z,97736.66
2023-03-27T10:24:12.495Z,97738.46
2023-03-27T10:26:40.168Z,97738.52
2023-03-27T10:29:07.919Z,97737.64
2023-03-27T10:31:37.941Z,97739.44
2023-03-27T10:34:06.227Z,97745.83
2023-03-27T10:36:34.810Z,97741.70
2023-03-27T10:39:03.174Z,97738.42
2023-03-27T10:41:30.943Z,97737.60
2023-03-27T10:43:58.614Z,97738.59
2023-03-27T10:46:26.895Z,97739.38
2023-03-27T10:48:54.852Z,97742.84
2023-03-27T10:51:23.695Z,97743.14
2023-03-27T10:53:52.851Z,97744.27
2023-03-27T10:56:20.797Z,97746.01
2023-03-27T10:58:48.563Z,97747.94
2023-03-27T11:01:16.679Z,97747.45
2023-03-27T11:03:44.611Z,97752.25
2023-03-27T11:06:12.426Z,97754.98
2023-03-27T11:08:40.544Z,97754.17
2023-03-27T11:11:08.311Z,97755.47
2023-03-27T11:13:35.962Z,97753.80
2023-03-27T11:16:04.024Z,97753.87
2023-03-27T11:18:32.410Z,97753.19
2023-03-27T11:21:00.174Z,97759.38
2023-03-27T11:23:28.859Z,97762.85
2023-03-27T11:25:59.992Z,97768.64
2023-03-27T11:28:27.766Z,97780.30
2023-03-27T11:30:56.344Z,97783.80
2023-03-27T11:33:24.624Z,97786.85
2023-03-27T11:35:52.331Z,97792.48
2023-03-27T11:38:20.035Z,97800.46
2023-03-27T11:40:48.022Z,97806.28
2023-03-27T11:43:15.895Z,97818.02
2023-03-27T11:45:43.551Z,97813.27
2023-03-27T11:48:11.347Z,97821.13
2023-03-27T11:50:39.220Z,97823.44
2023-03-27T11:53:07.459Z,97829.77
2023-03-27T11:55:35.122Z,97826.65
2023-03-27T11:58:03.529Z,97828.61
2023-03-27T12:00:31.369Z,97829.80
2023-03-27T12:02:59.165Z,97829.63
2023-03-27T12:05:26.893Z,97826.67
2023-03-27T12:07:54.760Z,97834.55
2023-03-27T12:10:28.397Z,97835.98
2023-03-27T12:12:56.638Z,97840.87
2023-03-27T12:15:24.399Z,97843.15
2023-03-27T12:17:52.966Z,97848.67
2023-03-27T12:20:20.862Z,97855.96
2023-03-27T12:22:48.626Z,97859.79
2023-03-27T12:25:17.104Z,97869.51
2023-03-27T12:27:45.077Z,97873.95
2023-03-27T12:30:12.831Z,97881.66
2023-03-27T12:32:40.818Z,97876.35
2023-03-27T12:35:08.559Z,97878.66
2023-03-27T12:37:36.224Z,97883.77
2023-03-27T12:40:10.645Z,97885.52
2023-03-27T12:42:43.640Z,97889.86
2023-03-27T12:45:12.216Z,97893.17
2023-03-27T12:47:39.910Z,97898.54
2023-03-27T12:50:07.737Z,97907.02
2023-03-27T12:52:35.400Z,97913.44
2023-03-27T12:55:03.068Z,97919.76
2023-03-27T12:57:31.092Z,97918.14
2023-03-27T12:59:59.407Z,97921.79
2023-03-27T13:02:27.403Z,97932.73
2023-03-27T13:04:55.354Z,97941.77
2023-03-27T13:07:23.528Z,97953.89
2023-03-27T13:09:53.043Z,97955.48
2023-03-27T13:12:20.691Z,97962.77
2023-03-27T13:14:49.074Z,97976.77
2023-03-27T13:17:16.737Z,97992.67
2023-03-27T13:19:44.396Z,97997.20
2023-03-27T13:22:12.130Z,98004.46
2023-03-27T13:24:40.230Z,98008.63
2023-03-27T13:27:07.998Z,98016.20
2023-03-27T13:29:36.170Z,98026.39
2023-03-27T13:32:03.930Z,98030.71
2023-03-27T13:34:33.005Z,98039.17
2023-03-27T13:37:06.032Z,98044.70
2023-03-27T13:39:34.699Z,98050.04
2023-03-27T13:42:02.752Z,98056.23
2023-03-27T13:44:30.552Z,98067.08
2023-03-27T13:46:58.233Z,98072.41
2023-03-27T13:49:26.064Z,98086.00
2023-03-27T13:51:53.727Z,98098.55
2023-03-27T13:54:21.387Z,98101.77
2023-03-27T13:56:49.177Z,98109.85
2023-03-27T13:59:16.914Z,98117.04
2023-03-27T14:01:44.659Z,98121.11
2023-03-27T14:04:12.382Z,98128.98
2023-03-27T14:06:40.216Z,98132.36
2023-03-27T14:09:08.172Z,98142.64
2023-03-27T14:11:37.806Z,98144.02
2023-03-27T14:14:06.988Z,98144.33
2023-03-27T14:16:34.924Z,98150.14
2023-03-27T14:19:02.818Z,98155.14
2023-03-27T14:21:38.514Z,98160.82
2023-03-27T14:24:06.954Z,98164.92
2023-03-27T14:26:36.244Z,98168.89
2023-03-27T14:29:04.008Z,98172.17
2023-03-27T14:31:35.687Z,98178.85
2023-03-27T14:34:03.629Z,98179.35
2023-03-27T14:36:34.171Z,98185.92
2023-03-27T14:39:02.540Z,98192.84
2023-03-27T14:41:31.534Z,98194.72
2023-03-27T14:43:59.194Z,98197.12
2023-03-27T14:46:27.960Z,98198.73
2023-03-27T14:48:57.079Z,98201.50
2023-03-27T14:51:35.183Z,98201.52
2023-03-27T14:54:02.851Z,98223.20
2023-03-27T14:56:31.022Z,98230.13
2023-03-27T14:58:58.682Z,98239.64
2023-03-27T15:01:26.499Z,98249.39
2023-03-27T15:03:54.302Z,98255.40
2023-03-27T15:06:25.970Z,98256.61
2023-03-27T15:08:53.832Z,98269.17
2023-03-27T15:11:21.959Z,98271.20
2023-03-27T15:13:49.681Z,98278.96
2023-03-27T15:16:17.462Z,98284.48
2023-03-27T15:18:45.203Z,98287.98
2023-03-27T15:21:14.612Z,98292.83
2023-03-27T15:23:42.669Z,98305.55
2023-03-27T15:26:10.436Z,98311.06
2023-03-27T15:28:38.316Z,98309.86
2023-03-27T15:31:05.999Z,98313.20
2023-03-27T15:33:35.366Z,98321.81
2023-03-27T15:36:03.933Z,98329.75
2023-03-27T15:38:31.821Z,98333.88
2023-03-27T15:40:59.598Z,98338.17
2023-03-27T15:43:27.344Z,98337.21
2023-03-27T15:45:55.174Z,98352.35
2023-03-27T15:48:23.485Z,98355.43
2023-03-27T15:50:51.247Z,98358.16
2023-03-27T15:53:18.910Z,98363.17
2023-03-27T15:55:55.577Z,98371.45
2023-03-27T15:58:23.449Z,98374.17
2023-03-27T16:00:51.622Z,98383.75
2023-03-27T16:03:19.349Z,98386.64
2023-03-27T16:05:47.353Z,98386.59
2023-03-27T16:08:15.016Z,98390.41
2023-03-27T16:10:42.676Z,98390.77
2023-03-27T16:13:10.617Z,98395.40
2023-03-27T16:15:38.717Z,98398.00
2023-03-27T16:18:07.095Z,98400.77
2023-03-27T16:20:34.862Z,98403.88
2023-03-27T16:23:04.308Z,98410.33
2023-03-27T16:25:32.127Z,98413.08
2023-03-27T16:27:59.898Z,98424.93
2023-03-27T16:30:27.666Z,98427.27
2023-03-27T16:32:55.954Z,98433.26
2023-03-27T16:35:23.715Z,98442.11
2023-03-27T16:37:51.467Z,98449.10
2023-03-27T16:40:19.227Z,98449.88
2023-03-27T16:42:46.998Z,98453.92
2023-03-27T16:45:14.935Z,98456.70
2023-03-27T16:47:44.272Z,98456.25
2023-03-27T16:50:12.595Z,98462.11
2023-03-27T16:52:40.610Z,98459.55
2023-03-27T16:55:08.271Z,98460.08
2023-03-27T16:57:36.561Z,98466.75
2023-03-27T17:00:05.514Z,98471.54
2023-03-27T17:02:34.823Z,98470.17
2023-03-27T17:05:03.273Z,98473.79
2023-03-27T17:07:31.593Z,98486.52
2023-03-27T17:09:59.354Z,98489.77
2023-03-27T17:12:28.964Z,98493.89
2023-03-27T17:14:56.627Z,98499.40
2023-03-27T17:17:24.600Z,98504.66
2023-03-27T17:19:52.362Z,98510.41
2023-03-27T17:22:20.124Z,98507.98
2023-03-27T17:24:56.262Z,98513.79
2023-03-27T17:27:26.671Z,98518.41
2023-03-27T17:29:56.352Z,98521.50
2023-03-27T17:32:24.466Z,98532.34
2023-03-27T17:34:52.415Z,98534.55
2023-03-27T17:37:20.122Z,98536.80
2023-03-27T17:39:47.803Z,98538.87
2023-03-27T17:42:15.551Z,98545.73
2023-03-27T17:44:45.482Z,98548.83
2023-03-27T17:47:13.436Z,98549.70
2023-03-27T17:49:43.392Z,98555.40
2023-03-27T17:52:12.320Z,98559.72
2023-03-27T17:54:40.425Z,98556.15
2023-03-27T17:57:08.369Z,98564.98
2023-03-27T17:59:36.764Z,98567.13
2023-03-27T18:02:04.740Z,98571.44
2023-03-27T18:04:33.413Z,98575.58
2023-03-27T18:07:01.385Z,98586.78
2023-03-27T18:09:29.249Z,98585.58
2023-03-27T18:11:56.911Z,98589.52
2023-03-27T18:14:24.569Z,98595.04
2023-03-27T18:16:52.336Z,98598.30
2023-03-27T18:19:20.003Z,98596.93
2023-03-27T18:21:47.785Z,98598.16
2023-03-27T18:24:15.934Z,98599.86
2023-03-27T18:26:43.600Z,98604.85
2023-03-27T18:29:11.372Z,98611.16
2023-03-27T18:31:39.034Z,98609.41
2023-03-27T18:34:07.311Z,98614.02
2023-03-27T18:36:35.164Z,98618.63
2023-03-27T18:39:04.444Z,98618.43
2023-03-27T18:41:32.124Z,98621.48
2023-03-27T18:43:59.791Z,98626.13
2023-03-27T18:46:27.498Z,98629.39
2023-03-27T18:48:55.525Z,98631.10
2023-03-27T18:51:24.099Z,98635.54
2023-03-27T18:53:51.767Z,98635.33
2023-03-27T18:56:19.637Z,98641.69
2023-03-27T18:58:47.497Z,98644.60
2023-03-27T19:01:15.320Z,98643.36
2023-03-27T19:03:43.126Z,98652.48
2023-03-27T19:06:12.021Z,98655.05
2023-03-27T19:08:42.165Z,98658.64
2023-03-27T19:11:10.006Z,98658.77
2023-03-27T19:13:37.765Z,98665.12
2023-03-27T19:16:14.279Z,98667.84
2023-03-27T19:18:43.340Z,98667.30
2023-03-27T19:21:11.097Z,98672.98
2023-03-27T19:23:38.870Z,98674.86
2023-03-27T19:26:06.622Z,98675.72
2023-03-27T19:28:34.300Z,98678.61
2023-03-27T19:31:01.995Z,98677.95
2023-03-27T19:33:29.819Z,98681.22
2023-03-27T19:35:57.511Z,98686.73
2023-03-27T19:38:25.650Z,98689.32
2023-03-27T19:40:53.308Z,98695.67
2023-03-27T19:43:21.832Z,98694.63
2023-03-27T19:45:49.562Z,98692.56
2023-03-27T19:48:18.547Z,98695.16
2023-03-27T19:50:46.412Z,98695.86
2023-03-27T19:53:14.282Z,98698.81
2023-03-27T19:55:47.376Z,98696.23
2023-03-27T19:58:15.338Z,98699.83
2023-03-27T20:00:44.642Z,98700.86
2023-03-27T20:03:16.757Z,98704.11
2023-03-27T20:05:44.708Z,98709.77
2023-03-27T20:08:12.436Z,98713.34
2023-03-27T20:10:40.507Z,98717.23
2023-03-27T20:13:08.284Z,98715.98
2023-03-27T20:15:36.273Z,98715.77
2023-03-27T20:18:05.005Z,98722.44
2023-03-27T20:20:33.508Z,98721.86
2023-03-27T20:23:01.789Z,98726.56
2023-03-27T20:25:33.875Z,98729.22
2023-03-27T20:28:01.715Z,98729.48
2023-03-27T20:30:29.389Z,98734.89
2023-03-27T20:32:57.166Z,98734.30
2023-03-27T20:35:25.246Z,98740.80
2023-03-27T20:37:56.493Z,98741.06
2023-03-27T20:40:24.325Z,98740.31
2023-03-27T20:43:04.180Z,98746.84
2023-03-27T20:45:31.840Z,98746.64
2023-03-27T20:48:04.308Z,98744.88
2023-03-27T20:50:35.896Z,98747.11
2023-03-27T20:53:04.781Z,98745.13
2023-03-27T20:55:39.360Z,98753.83
2023-03-27T20:58:09.204Z,98751.71
2023-03-27T21:00:36.973Z,98755.92
2023-03-27T21:03:04.808Z,98755.86
2023-03-27T21:05:32.923Z,98755.31
2023-03-27T21:08:00.566Z,98754.63
2023-03-27T21:10:28.316Z,98758.03
2023-03-27T21:12:56.905Z,98759.38
2023-03-27T21:15:24.683Z,98757.98
2023-03-27T21:17:52.450Z,98759.15
2023-03-27T21:20:20.198Z,98766.01
2023-03-27T21:22:52.838Z,98761.45
2023-03-27T21:25:21.265Z,98762.96
2023-03-27T21:27:49.015Z,98768.23
2023-03-27T21:30:17.298Z,98769.21
2023-03-27T21:32:46.008Z,98771.21
2023-03-27T21:35:13.847Z,98772.23
2023-03-27T21:37:41.818Z,98775.65
2023-03-27T21:40:09.584Z,98780.76
2023-03-27T21:42:37.345Z,98780.19
2023-03-27T21:45:05.120Z,98778.41
2023-03-27T21:47:46.587Z,98776.78
2023-03-27T21:50:15.488Z,98776.91
2023-03-27T21:52:43.246Z,98778.06
2023-03-27T21:55:11.209Z,98779.39
2023-03-27T21:57:38.878Z,98781.27
2023-03-27T22:00:06.540Z,98785.56
2023-03-27T22:02:34.215Z,98790.34
2023-03-27T22:05:02.425Z,98791.02
2023-03-27T22:07:30.345Z,98793.37
2023-03-27T22:09:58.106Z,98793.39
2023-03-27T22:12:26.080Z,98795.30
2023-03-27T22:14:53.736Z,98796.39
2023-03-27T22:17:21.911Z,98802.33
2023-03-27T22:19:49.571Z,98807.28
2023-03-27T22:22:17.336Z,98805.73
2023-03-27T22:24:45.099Z,98811.56
2023-03-27T22:27:12.862Z,98811.19
2023-03-27T22:29:40.522Z,98816.67
2023-03-27T22:32:08.287Z,98818.51
2023-03-27T22:34:36.154Z,98814.89
2023-03-27T22:37:03.915Z,98816.58
2023-03-27T22:39:31.783Z,98819.65
2023-03-27T22:41:59.451Z,98820.13
2023-03-27T22:44:27.211Z,98826.42
2023-03-27T22:46:55.015Z,98827.76
2023-03-27T22:49:22.839Z,98824.64
2023-03-27T22:51:50.499Z,98827.71
2023-03-27T22:54:18.875Z,98831.27
2023-03-27T22:56:47.127Z,98829.34
2023-03-27T22:59:14.847Z,98832.08
2023-03-27T23:01:42.645Z,98833.06
2023-03-27T23:04:10.683Z,98839.23
2023-03-27T23:06:38.621Z,98838.86
2023-03-27T23:09:06.489Z,98843.81
2023-03-27T23:11:34.150Z,98846.04
2023-03-27T23:14:01.917Z,98849.82
2023-03-27T23:16:29.806Z,98851.67
2023-03-27T23:18:57.547Z,98856.12
2023-03-27T23:21:25.514Z,98856.77
2023-03-27T23:23:53.278Z,98863.84
2023-03-27T23:26:21.451Z,98864.58
2023-03-27T23:28:49.215Z,98863.77
2023-03-27T23:31:17.170Z,98864.11
2023-03-27T23:33:45.057Z,98867.89
2023-03-27T23:36:12.838Z,98871.48
2023-03-27T23:38:41.603Z,98871.33
2023-03-27T23:41:09.270Z,98873.00
2023-03-27T23:43:37.029Z,98873.52
2023-03-27T23:46:05.755Z,98874.27
2023-03-27T23:48:33.577Z,98875.83
2023-03-27T23:51:01.546Z,98876.27
2023-03-27T23:53:29.321Z,98873.42
2023-03-27T23:55:57.128Z,98873.55
2023-03-27T23:58:24.841Z,98877.29
